sensor_id;sensor_type;location;lat;lon;timestamp;P1;durP1;ratioP1;P2;durP2;ratioP2
15063;SDS011;7631;52.088;5.088;2023-04-03T00:00:21;1.50;;;1.23;;
15063;SDS011;7631;52.088;5.088;2023-04-03T00:02:46;1.40;;;1.10;;
15063;SDS011;7631;52.088;5.088;2023-04-03T00:05:11;2.13;;;1.20;;
15063;SDS011;7631;52.088;5.088;2023-04-03T00:07:36;1.50;;;1.10;;
15063;SDS011;7631;52.088;5.088;2023-04-03T00:10:02;1.20;;;1.10;;
15063;SDS011;7631;52.088;5.088;2023-04-03T00:12:27;1.47;;;1.00;;
15063;SDS011;7631;52.088;5.088;2023-04-03T00:14:52;1.17;;;1.00;;
15063;SDS011;7631;52.088;5.088;2023-04-03T00:17:18;1.27;;;0.97;;
15063;SDS011;7631;52.088;5.088;2023-04-03T00:19:43;3.37;;;1.03;;
15063;SDS011;7631;52.088;5.088;2023-04-03T00:22:08;1.93;;;1.20;;
15063;SDS011;7631;52.088;5.088;2023-04-03T00:24:33;1.90;;;1.20;;
15063;SDS011;7631;52.088;5.088;2023-04-03T00:26:58;1.63;;;1.17;;
15063;SDS011;7631;52.088;5.088;2023-04-03T00:29:24;1.90;;;1.30;;
15063;SDS011;7631;52.088;5.088;2023-04-03T00:31:49;1.40;;;1.00;;
15063;SDS011;7631;52.088;5.088;2023-04-03T00:34:14;2.37;;;1.30;;
15063;SDS011;7631;52.088;5.088;2023-04-03T00:36:40;2.00;;;1.00;;
15063;SDS011;7631;52.088;5.088;2023-04-03T00:39:05;1.87;;;1.10;;
15063;SDS011;7631;52.088;5.088;2023-04-03T00:41:31;1.97;;;1.20;;
15063;SDS011;7631;52.088;5.088;2023-04-03T00:43:56;1.50;;;1.10;;
15063;SDS011;7631;52.088;5.088;2023-04-03T00:46:22;2.10;;;1.03;;
15063;SDS011;7631;52.088;5.088;2023-04-03T00:48:48;1.73;;;1.00;;
15063;SDS011;7631;52.088;5.088;2023-04-03T00:51:17;3.20;;;1.33;;
15063;SDS011;7631;52.088;5.088;2023-04-03T00:53:46;1.83;;;1.20;;
15063;SDS011;7631;52.088;5.088;2023-04-03T00:56:13;1.70;;;1.10;;
15063;SDS011;7631;52.088;5.088;2023-04-03T00:59:00;1.63;;;1.20;;
15063;SDS011;7631;52.088;5.088;2023-04-03T01:01:25;2.53;;;1.40;;
15063;SDS011;7631;52.088;5.088;2023-04-03T01:03:51;2.17;;;1.00;;
15063;SDS011;7631;52.088;5.088;2023-04-03T01:06:17;2.70;;;1.40;;
15063;SDS011;7631;52.088;5.088;2023-04-03T01:08:44;2.87;;;1.50;;
15063;SDS011;7631;52.088;5.088;2023-04-03T01:11:09;2.23;;;1.17;;
15063;SDS011;7631;52.088;5.088;2023-04-03T01:13:35;1.70;;;1.03;;
15063;SDS011;7631;52.088;5.088;2023-04-03T01:16:01;1.97;;;1.10;;
15063;SDS011;7631;52.088;5.088;2023-04-03T01:18:27;1.73;;;1.03;;
15063;SDS011;7631;52.088;5.088;2023-04-03T01:25:47;2.00;;;1.40;;
15063;SDS011;7631;52.088;5.088;2023-04-03T01:28:14;1.33;;;1.13;;
15063;SDS011;7631;52.088;5.088;2023-04-03T01:33:28;3.07;;;1.30;;
15063;SDS011;7631;52.088;5.088;2023-04-03T01:35:54;2.10;;;1.30;;
15063;SDS011;7631;52.088;5.088;2023-04-03T01:38:19;2.70;;;1.13;;
15063;SDS011;7631;52.088;5.088;2023-04-03T01:40:45;1.97;;;1.10;;
15063;SDS011;7631;52.088;5.088;2023-04-03T01:43:11;2.80;;;1.40;;
15063;SDS011;7631;52.088;5.088;2023-04-03T01:45:36;1.80;;;1.27;;
15063;SDS011;7631;52.088;5.088;2023-04-03T01:48:01;1.30;;;1.10;;
15063;SDS011;7631;52.088;5.088;2023-04-03T01:50:27;2.17;;;1.43;;
15063;SDS011;7631;52.088;5.088;2023-04-03T01:52:52;2.43;;;1.20;;
15063;SDS011;7631;52.088;5.088;2023-04-03T01:55:17;1.23;;;0.97;;
15063;SDS011;7631;52.088;5.088;2023-04-03T01:57:42;1.43;;;1.10;;
15063;SDS011;7631;52.088;5.088;2023-04-03T02:00:08;2.00;;;1.10;;
15063;SDS011;7631;52.088;5.088;2023-04-03T02:02:34;1.90;;;1.20;;
15063;SDS011;7631;52.088;5.088;2023-04-03T02:04:59;2.03;;;1.30;;
15063;SDS011;7631;52.088;5.088;2023-04-03T02:07:24;1.30;;;1.10;;
15063;SDS011;7631;52.088;5.088;2023-04-03T02:09:50;3.70;;;1.30;;
15063;SDS011;7631;52.088;5.088;2023-04-03T02:12:15;1.67;;;1.40;;
15063;SDS011;7631;52.088;5.088;2023-04-03T02:14:40;1.40;;;1.00;;
15063;SDS011;7631;52.088;5.088;2023-04-03T02:17:06;2.00;;;1.30;;
15063;SDS011;7631;52.088;5.088;2023-04-03T02:19:33;2.63;;;1.40;;
15063;SDS011;7631;52.088;5.088;2023-04-03T02:21:59;2.17;;;1.20;;
15063;SDS011;7631;52.088;5.088;2023-04-03T02:24:24;1.70;;;1.13;;
15063;SDS011;7631;52.088;5.088;2023-04-03T02:26:49;1.63;;;1.33;;
15063;SDS011;7631;52.088;5.088;2023-04-03T02:29:15;2.70;;;1.20;;
15063;SDS011;7631;52.088;5.088;2023-04-03T02:31:40;1.37;;;0.87;;
15063;SDS011;7631;52.088;5.088;2023-04-03T02:34:05;2.43;;;1.20;;
15063;SDS011;7631;52.088;5.088;2023-04-03T02:36:30;2.97;;;1.30;;
15063;SDS011;7631;52.088;5.088;2023-04-03T02:38:56;1.60;;;1.10;;
15063;SDS011;7631;52.088;5.088;2023-04-03T02:41:21;2.10;;;1.10;;
15063;SDS011;7631;52.088;5.088;2023-04-03T02:43:46;1.30;;;1.10;;
15063;SDS011;7631;52.088;5.088;2023-04-03T02:46:11;2.30;;;1.30;;
15063;SDS011;7631;52.088;5.088;2023-04-03T02:48:39;1.80;;;1.23;;
15063;SDS011;7631;52.088;5.088;2023-04-03T02:51:04;1.87;;;1.00;;
15063;SDS011;7631;52.088;5.088;2023-04-03T02:53:29;1.70;;;1.17;;
15063;SDS011;7631;52.088;5.088;2023-04-03T02:55:55;1.80;;;0.93;;
15063;SDS011;7631;52.088;5.088;2023-04-03T02:58:20;2.50;;;1.07;;
15063;SDS011;7631;52.088;5.088;2023-04-03T03:00:45;1.77;;;0.90;;
15063;SDS011;7631;52.088;5.088;2023-04-03T03:03:10;2.53;;;1.30;;
15063;SDS011;7631;52.088;5.088;2023-04-03T03:05:35;2.23;;;1.40;;
15063;SDS011;7631;52.088;5.088;2023-04-03T03:08:01;2.53;;;1.20;;
15063;SDS011;7631;52.088;5.088;2023-04-03T03:10:26;1.50;;;1.10;;
15063;SDS011;7631;52.088;5.088;2023-04-03T03:12:51;3.10;;;1.23;;
15063;SDS011;7631;52.088;5.088;2023-04-03T03:15:16;1.90;;;1.20;;
15063;SDS011;7631;52.088;5.088;2023-04-03T03:17:42;1.83;;;1.20;;
15063;SDS011;7631;52.088;5.088;2023-04-03T03:20:08;1.70;;;1.27;;
15063;SDS011;7631;52.088;5.088;2023-04-03T03:22:34;1.70;;;1.27;;
15063;SDS011;7631;52.088;5.088;2023-04-03T03:25:00;1.83;;;0.90;;
15063;SDS011;7631;52.088;5.088;2023-04-03T03:27:26;1.00;;;0.90;;
15063;SDS011;7631;52.088;5.088;2023-04-03T03:29:51;1.57;;;1.03;;
15063;SDS011;7631;52.088;5.088;2023-04-03T03:32:16;1.57;;;0.97;;
15063;SDS011;7631;52.088;5.088;2023-04-03T03:34:41;2.67;;;1.40;;
15063;SDS011;7631;52.088;5.088;2023-04-03T03:37:07;1.60;;;1.07;;
15063;SDS011;7631;52.088;5.088;2023-04-03T03:39:32;3.00;;;1.17;;
15063;SDS011;7631;52.088;5.088;2023-04-03T03:41:57;2.50;;;1.20;;
15063;SDS011;7631;52.088;5.088;2023-04-03T03:44:22;2.50;;;1.33;;
15063;SDS011;7631;52.088;5.088;2023-04-03T03:46:47;3.67;;;1.20;;
15063;SDS011;7631;52.088;5.088;2023-04-03T03:49:13;1.63;;;1.30;;
15063;SDS011;7631;52.088;5.088;2023-04-03T03:51:38;1.80;;;1.30;;
15063;SDS011;7631;52.088;5.088;2023-04-03T03:54:04;2.07;;;1.20;;
15063;SDS011;7631;52.088;5.088;2023-04-03T03:56:29;1.87;;;1.17;;
15063;SDS011;7631;52.088;5.088;2023-04-03T03:58:55;2.90;;;1.40;;
15063;SDS011;7631;52.088;5.088;2023-04-03T04:01:21;1.87;;;1.00;;
15063;SDS011;7631;52.088;5.088;2023-04-03T04:03:47;2.80;;;1.60;;
15063;SDS011;7631;52.088;5.088;2023-04-03T04:06:12;2.37;;;1.33;;
15063;SDS011;7631;52.088;5.088;2023-04-03T04:08:37;2.20;;;1.43;;
15063;SDS011;7631;52.088;5.088;2023-04-03T04:11:03;3.10;;;1.30;;
15063;SDS011;7631;52.088;5.088;2023-04-03T04:13:28;1.93;;;1.10;;
15063;SDS011;7631;52.088;5.088;2023-04-03T04:15:53;1.07;;;0.90;;
15063;SDS011;7631;52.088;5.088;2023-04-03T04:18:18;2.20;;;1.13;;
15063;SDS011;7631;52.088;5.088;2023-04-03T04:20:45;2.87;;;1.50;;
15063;SDS011;7631;52.088;5.088;2023-04-03T04:23:10;2.93;;;1.30;;
15063;SDS011;7631;52.088;5.088;2023-04-03T04:25:36;2.33;;;1.20;;
15063;SDS011;7631;52.088;5.088;2023-04-03T04:28:01;1.50;;;1.10;;
15063;SDS011;7631;52.088;5.088;2023-04-03T04:30:26;1.57;;;1.03;;
15063;SDS011;7631;52.088;5.088;2023-04-03T04:32:52;2.67;;;1.40;;
15063;SDS011;7631;52.088;5.088;2023-04-03T04:35:17;2.90;;;1.20;;
15063;SDS011;7631;52.088;5.088;2023-04-03T04:37:42;2.60;;;1.57;;
15063;SDS011;7631;52.088;5.088;2023-04-03T04:40:08;1.67;;;1.03;;
15063;SDS011;7631;52.088;5.088;2023-04-03T04:42:33;1.70;;;1.30;;
15063;SDS011;7631;52.088;5.088;2023-04-03T04:44:59;2.67;;;1.20;;
15063;SDS011;7631;52.088;5.088;2023-04-03T04:47:24;2.97;;;1.30;;
15063;SDS011;7631;52.088;5.088;2023-04-03T04:49:49;2.20;;;1.30;;
15063;SDS011;7631;52.088;5.088;2023-04-03T04:52:15;2.40;;;1.20;;
15063;SDS011;7631;52.088;5.088;2023-04-03T04:54:40;2.33;;;1.13;;
15063;SDS011;7631;52.088;5.088;2023-04-03T04:57:05;3.63;;;1.07;;
15063;SDS011;7631;52.088;5.088;2023-04-03T04:59:30;2.37;;;1.37;;
15063;SDS011;7631;52.088;5.088;2023-04-03T05:01:56;2.40;;;1.10;;
15063;SDS011;7631;52.088;5.088;2023-04-03T05:04:21;1.50;;;1.17;;
15063;SDS011;7631;52.088;5.088;2023-04-03T05:06:46;3.83;;;1.50;;
15063;SDS011;7631;52.088;5.088;2023-04-03T05:09:11;2.63;;;1.40;;
15063;SDS011;7631;52.088;5.088;2023-04-03T05:11:37;2.17;;;1.30;;
15063;SDS011;7631;52.088;5.088;2023-04-03T05:14:02;1.97;;;1.10;;
15063;SDS011;7631;52.088;5.088;2023-04-03T05:16:30;2.10;;;1.40;;
15063;SDS011;7631;52.088;5.088;2023-04-03T05:18:55;2.03;;;1.30;;
15063;SDS011;7631;52.088;5.088;2023-04-03T05:21:20;2.60;;;1.60;;
15063;SDS011;7631;52.088;5.088;2023-04-03T05:23:48;2.63;;;1.30;;
15063;SDS011;7631;52.088;5.088;2023-04-03T05:26:13;3.90;;;1.60;;
15063;SDS011;7631;52.088;5.088;2023-04-03T05:28:38;3.10;;;1.60;;
15063;SDS011;7631;52.088;5.088;2023-04-03T05:31:03;2.67;;;1.53;;
15063;SDS011;7631;52.088;5.088;2023-04-03T05:33:28;2.90;;;1.67;;
15063;SDS011;7631;52.088;5.088;2023-04-03T05:35:54;3.73;;;1.40;;
15063;SDS011;7631;52.088;5.088;2023-04-03T05:38:19;2.77;;;1.40;;
15063;SDS011;7631;52.088;5.088;2023-04-03T05:40:45;3.93;;;1.57;;
15063;SDS011;7631;52.088;5.088;2023-04-03T05:43:10;4.13;;;1.97;;
15063;SDS011;7631;52.088;5.088;2023-04-03T05:45:35;3.77;;;1.43;;
15063;SDS011;7631;52.088;5.088;2023-04-03T05:48:01;3.33;;;1.77;;
15063;SDS011;7631;52.088;5.088;2023-04-03T05:50:26;3.53;;;1.43;;
15063;SDS011;7631;52.088;5.088;2023-04-03T05:52:52;3.03;;;1.63;;
15063;SDS011;7631;52.088;5.088;2023-04-03T05:55:18;3.27;;;1.70;;
15063;SDS011;7631;52.088;5.088;2023-04-03T05:57:43;4.77;;;1.77;;
15063;SDS011;7631;52.088;5.088;2023-04-03T06:00:11;2.47;;;1.43;;
15063;SDS011;7631;52.088;5.088;2023-04-03T06:02:37;4.07;;;1.73;;
15063;SDS011;7631;52.088;5.088;2023-04-03T06:05:02;3.00;;;1.60;;
15063;SDS011;7631;52.088;5.088;2023-04-03T06:07:28;2.30;;;1.70;;
15063;SDS011;7631;52.088;5.088;2023-04-03T06:09:53;4.13;;;1.97;;
15063;SDS011;7631;52.088;5.088;2023-04-03T06:12:19;3.23;;;1.73;;
15063;SDS011;7631;52.088;5.088;2023-04-03T06:14:44;2.30;;;1.27;;
15063;SDS011;7631;52.088;5.088;2023-04-03T06:17:10;3.33;;;1.70;;
15063;SDS011;7631;52.088;5.088;2023-04-03T06:19:37;4.50;;;2.20;;
15063;SDS011;7631;52.088;5.088;2023-04-03T06:22:02;3.60;;;1.77;;
15063;SDS011;7631;52.088;5.088;2023-04-03T06:24:28;3.60;;;2.20;;
15063;SDS011;7631;52.088;5.088;2023-04-03T06:26:53;2.90;;;1.73;;
15063;SDS011;7631;52.088;5.088;2023-04-03T06:29:19;3.60;;;1.93;;
15063;SDS011;7631;52.088;5.088;2023-04-03T06:31:45;4.33;;;2.13;;
15063;SDS011;7631;52.088;5.088;2023-04-03T06:34:11;4.10;;;1.83;;
15063;SDS011;7631;52.088;5.088;2023-04-03T06:36:36;5.70;;;2.00;;
15063;SDS011;7631;52.088;5.088;2023-04-03T06:39:02;3.67;;;2.00;;
15063;SDS011;7631;52.088;5.088;2023-04-03T06:41:28;2.73;;;1.90;;
15063;SDS011;7631;52.088;5.088;2023-04-03T06:43:53;4.20;;;2.07;;
15063;SDS011;7631;52.088;5.088;2023-04-03T06:46:21;5.50;;;1.80;;
15063;SDS011;7631;52.088;5.088;2023-04-03T06:48:47;2.53;;;1.57;;
15063;SDS011;7631;52.088;5.088;2023-04-03T06:51:20;4.53;;;1.90;;
15063;SDS011;7631;52.088;5.088;2023-04-03T06:53:46;4.53;;;2.07;;
15063;SDS011;7631;52.088;5.088;2023-04-03T06:56:12;3.93;;;1.90;;
15063;SDS011;7631;52.088;5.088;2023-04-03T06:58:37;3.47;;;1.93;;
15063;SDS011;7631;52.088;5.088;2023-04-03T07:01:02;2.27;;;1.43;;
15063;SDS011;7631;52.088;5.088;2023-04-03T07:03:27;2.87;;;1.60;;
15063;SDS011;7631;52.088;5.088;2023-04-03T07:05:53;2.67;;;1.50;;
15063;SDS011;7631;52.088;5.088;2023-04-03T07:08:18;4.17;;;2.10;;
15063;SDS011;7631;52.088;5.088;2023-04-03T07:10:43;4.70;;;1.60;;
15063;SDS011;7631;52.088;5.088;2023-04-03T07:13:08;2.90;;;1.67;;
15063;SDS011;7631;52.088;5.088;2023-04-03T07:15:34;2.73;;;1.73;;
15063;SDS011;7631;52.088;5.088;2023-04-03T07:17:59;2.93;;;1.80;;
15063;SDS011;7631;52.088;5.088;2023-04-03T07:20:24;2.43;;;1.37;;
15063;SDS011;7631;52.088;5.088;2023-04-03T07:22:50;3.90;;;1.87;;
15063;SDS011;7631;52.088;5.088;2023-04-03T07:25:15;2.87;;;1.47;;
15063;SDS011;7631;52.088;5.088;2023-04-03T07:27:41;2.67;;;1.90;;
15063;SDS011;7631;52.088;5.088;2023-04-03T07:30:06;4.70;;;1.80;;
15063;SDS011;7631;52.088;5.088;2023-04-03T07:32:32;3.43;;;1.30;;
15063;SDS011;7631;52.088;5.088;2023-04-03T07:34:57;3.30;;;1.70;;
15063;SDS011;7631;52.088;5.088;2023-04-03T07:37:22;2.70;;;1.70;;
15063;SDS011;7631;52.088;5.088;2023-04-03T07:39:47;2.50;;;1.43;;
15063;SDS011;7631;52.088;5.088;2023-04-03T07:42:13;2.47;;;1.50;;
15063;SDS011;7631;52.088;5.088;2023-04-03T07:44:38;3.47;;;1.80;;
15063;SDS011;7631;52.088;5.088;2023-04-03T07:47:03;1.77;;;1.47;;
15063;SDS011;7631;52.088;5.088;2023-04-03T07:49:29;3.10;;;1.53;;
15063;SDS011;7631;52.088;5.088;2023-04-03T07:51:54;3.27;;;1.60;;
15063;SDS011;7631;52.088;5.088;2023-04-03T07:54:19;4.00;;;1.50;;
15063;SDS011;7631;52.088;5.088;2023-04-03T07:56:45;1.80;;;1.30;;
15063;SDS011;7631;52.088;5.088;2023-04-03T07:59:10;2.23;;;1.70;;
15063;SDS011;7631;52.088;5.088;2023-04-03T08:01:36;1.77;;;1.23;;
15063;SDS011;7631;52.088;5.088;2023-04-03T08:04:02;2.80;;;1.43;;
15063;SDS011;7631;52.088;5.088;2023-04-03T08:06:27;2.03;;;1.23;;
15063;SDS011;7631;52.088;5.088;2023-04-03T08:08:54;1.83;;;1.10;;
15063;SDS011;7631;52.088;5.088;2023-04-03T08:11:19;2.60;;;1.43;;
15063;SDS011;7631;52.088;5.088;2023-04-03T08:13:45;3.30;;;1.23;;
15063;SDS011;7631;52.088;5.088;2023-04-03T08:16:12;2.77;;;1.60;;
15063;SDS011;7631;52.088;5.088;2023-04-03T08:18:37;3.50;;;1.70;;
15063;SDS011;7631;52.088;5.088;2023-04-03T08:21:08;3.67;;;1.30;;
15063;SDS011;7631;52.088;5.088;2023-04-03T08:23:33;4.10;;;1.50;;
15063;SDS011;7631;52.088;5.088;2023-04-03T08:25:58;3.10;;;1.67;;
15063;SDS011;7631;52.088;5.088;2023-04-03T08:28:23;5.03;;;1.60;;
15063;SDS011;7631;52.088;5.088;2023-04-03T08:30:49;3.27;;;1.30;;
15063;SDS011;7631;52.088;5.088;2023-04-03T08:33:14;3.33;;;1.87;;
15063;SDS011;7631;52.088;5.088;2023-04-03T08:35:40;3.77;;;1.93;;
15063;SDS011;7631;52.088;5.088;2023-04-03T08:38:06;3.53;;;1.70;;
15063;SDS011;7631;52.088;5.088;2023-04-03T08:40:31;2.37;;;1.67;;
15063;SDS011;7631;52.088;5.088;2023-04-03T08:48:21;2.73;;;1.20;;
15063;SDS011;7631;52.088;5.088;2023-04-03T08:50:48;2.83;;;1.57;;
15063;SDS011;7631;52.088;5.088;2023-04-03T08:53:16;2.70;;;1.17;;
15063;SDS011;7631;52.088;5.088;2023-04-03T08:55:43;2.83;;;1.27;;
15063;SDS011;7631;52.088;5.088;2023-04-03T08:58:21;2.87;;;1.50;;
15063;SDS011;7631;52.088;5.088;2023-04-03T09:00:48;3.53;;;1.40;;
15063;SDS011;7631;52.088;5.088;2023-04-03T09:03:15;2.37;;;1.20;;
15063;SDS011;7631;52.088;5.088;2023-04-03T09:05:48;4.23;;;1.83;;
15063;SDS011;7631;52.088;5.088;2023-04-03T09:10:42;2.63;;;1.37;;
15063;SDS011;7631;52.088;5.088;2023-04-03T09:13:10;2.97;;;1.70;;
15063;SDS011;7631;52.088;5.088;2023-04-03T09:15:38;3.10;;;1.47;;
15063;SDS011;7631;52.088;5.088;2023-04-03T09:20:46;2.43;;;1.30;;
15063;SDS011;7631;52.088;5.088;2023-04-03T09:23:57;2.30;;;1.30;;
15063;SDS011;7631;52.088;5.088;2023-04-03T09:25:58;1.60;;;1.00;;
15063;SDS011;7631;52.088;5.088;2023-04-03T09:28:26;1.73;;;0.90;;
15063;SDS011;7631;52.088;5.088;2023-04-03T09:30:51;1.77;;;0.87;;
15063;SDS011;7631;52.088;5.088;2023-04-03T09:33:16;2.20;;;1.00;;
15063;SDS011;7631;52.088;5.088;2023-04-03T09:35:42;1.63;;;1.17;;
15063;SDS011;7631;52.088;5.088;2023-04-03T09:40:37;1.70;;;1.10;;
15063;SDS011;7631;52.088;5.088;2023-04-03T09:43:19;1.50;;;0.90;;
15063;SDS011;7631;52.088;5.088;2023-04-03T09:45:45;1.07;;;0.80;;
15063;SDS011;7631;52.088;5.088;2023-04-03T09:50:37;1.93;;;1.07;;
15063;SDS011;7631;52.088;5.088;2023-04-03T09:53:06;1.80;;;1.00;;
15063;SDS011;7631;52.088;5.088;2023-04-03T09:55:32;1.20;;;0.93;;
15063;SDS011;7631;52.088;5.088;2023-04-03T09:58:06;1.20;;;0.90;;
15063;SDS011;7631;52.088;5.088;2023-04-03T10:00:53;1.93;;;1.07;;
15063;SDS011;7631;52.088;5.088;2023-04-03T10:03:27;1.83;;;0.93;;
15063;SDS011;7631;52.088;5.088;2023-04-03T10:05:52;1.50;;;0.90;;
15063;SDS011;7631;52.088;5.088;2023-04-03T10:08:30;1.17;;;0.70;;
15063;SDS011;7631;52.088;5.088;2023-04-03T10:11:12;0.90;;;0.77;;
15063;SDS011;7631;52.088;5.088;2023-04-03T10:13:54;1.67;;;1.00;;
15063;SDS011;7631;52.088;5.088;2023-04-03T10:16:23;1.93;;;0.80;;
15063;SDS011;7631;52.088;5.088;2023-04-03T10:21:36;1.47;;;0.80;;
15063;SDS011;7631;52.088;5.088;2023-04-03T10:24:08;2.70;;;1.10;;
15063;SDS011;7631;52.088;5.088;2023-04-03T10:29:14;2.20;;;0.80;;
15063;SDS011;7631;52.088;5.088;2023-04-03T10:32:23;1.37;;;0.83;;
15063;SDS011;7631;52.088;5.088;2023-04-03T10:34:33;2.17;;;0.93;;
15063;SDS011;7631;52.088;5.088;2023-04-03T10:57:52;1.90;;;0.70;;
15063;SDS011;7631;52.088;5.088;2023-04-03T11:00:23;1.60;;;0.80;;
15063;SDS011;7631;52.088;5.088;2023-04-03T11:02:52;1.43;;;0.70;;
15063;SDS011;7631;52.088;5.088;2023-04-03T11:05:21;1.23;;;0.80;;
15063;SDS011;7631;52.088;5.088;2023-04-03T11:07:52;0.70;;;0.60;;
15063;SDS011;7631;52.088;5.088;2023-04-03T11:10:26;1.47;;;0.80;;
15063;SDS011;7631;52.088;5.088;2023-04-03T11:13:27;0.90;;;0.60;;
15063;SDS011;7631;52.088;5.088;2023-04-03T11:15:45;1.17;;;0.60;;
15063;SDS011;7631;52.088;5.088;2023-04-03T11:18:19;0.77;;;0.57;;
15063;SDS011;7631;52.088;5.088;2023-04-03T11:23:32;1.33;;;0.57;;
15063;SDS011;7631;52.088;5.088;2023-04-03T11:26:21;1.23;;;0.73;;
15063;SDS011;7631;52.088;5.088;2023-04-03T11:28:45;1.47;;;0.67;;
15063;SDS011;7631;52.088;5.088;2023-04-03T11:39:28;0.70;;;0.43;;
15063;SDS011;7631;52.088;5.088;2023-04-03T11:41:52;2.03;;;0.70;;
15063;SDS011;7631;52.088;5.088;2023-04-03T11:44:32;0.80;;;0.60;;
15063;SDS011;7631;52.088;5.088;2023-04-03T11:46:58;1.00;;;0.67;;
15063;SDS011;7631;52.088;5.088;2023-04-03T11:52:10;1.10;;;0.50;;
15063;SDS011;7631;52.088;5.088;2023-04-03T11:57:14;0.97;;;0.57;;
15063;SDS011;7631;52.088;5.088;2023-04-03T11:59:46;1.03;;;0.50;;
15063;SDS011;7631;52.088;5.088;2023-04-03T12:02:56;1.27;;;0.60;;
15063;SDS011;7631;52.088;5.088;2023-04-03T12:05:23;0.60;;;0.60;;
15063;SDS011;7631;52.088;5.088;2023-04-03T12:10:33;1.00;;;0.70;;
15063;SDS011;7631;52.088;5.088;2023-04-03T12:12:58;2.17;;;0.80;;
15063;SDS011;7631;52.088;5.088;2023-04-03T12:18:31;0.80;;;0.50;;
15063;SDS011;7631;52.088;5.088;2023-04-03T12:23:25;1.03;;;0.60;;
15063;SDS011;7631;52.088;5.088;2023-04-03T12:25:51;0.87;;;0.60;;
15063;SDS011;7631;52.088;5.088;2023-04-03T12:28:16;2.73;;;0.60;;
15063;SDS011;7631;52.088;5.088;2023-04-03T12:30:42;1.13;;;0.67;;
15063;SDS011;7631;52.088;5.088;2023-04-03T12:33:24;2.03;;;0.70;;
15063;SDS011;7631;52.088;5.088;2023-04-03T12:36:08;2.07;;;0.73;;
15063;SDS011;7631;52.088;5.088;2023-04-03T12:38:49;0.73;;;0.60;;
15063;SDS011;7631;52.088;5.088;2023-04-03T12:41:24;2.33;;;0.70;;
15063;SDS011;7631;52.088;5.088;2023-04-03T12:46:38;1.03;;;0.67;;
15063;SDS011;7631;52.088;5.088;2023-04-03T12:49:12;0.80;;;0.50;;
15063;SDS011;7631;52.088;5.088;2023-04-03T12:51:42;0.70;;;0.50;;
15063;SDS011;7631;52.088;5.088;2023-04-03T12:56:38;0.90;;;0.63;;
15063;SDS011;7631;52.088;5.088;2023-04-03T13:01:58;0.60;;;0.53;;
15063;SDS011;7631;52.088;5.088;2023-04-03T13:04:24;2.13;;;0.73;;
15063;SDS011;7631;52.088;5.088;2023-04-03T13:06:50;0.90;;;0.60;;
15063;SDS011;7631;52.088;5.088;2023-04-03T13:09:36;0.60;;;0.50;;
15063;SDS011;7631;52.088;5.088;2023-04-03T13:12:02;1.00;;;0.50;;
15063;SDS011;7631;52.088;5.088;2023-04-03T13:14:29;0.80;;;0.60;;
15063;SDS011;7631;52.088;5.088;2023-04-03T13:16:55;1.23;;;0.80;;
15063;SDS011;7631;52.088;5.088;2023-04-03T13:19:22;0.80;;;0.50;;
15063;SDS011;7631;52.088;5.088;2023-04-03T13:21:47;1.43;;;0.60;;
15063;SDS011;7631;52.088;5.088;2023-04-03T13:24:13;1.00;;;0.70;;
15063;SDS011;7631;52.088;5.088;2023-04-03T13:26:38;0.80;;;0.60;;
15063;SDS011;7631;52.088;5.088;2023-04-03T13:29:05;1.23;;;0.80;;
15063;SDS011;7631;52.088;5.088;2023-04-03T13:31:35;0.80;;;0.80;;
15063;SDS011;7631;52.088;5.088;2023-04-03T13:36:45;1.40;;;0.60;;
15063;SDS011;7631;52.088;5.088;2023-04-03T13:41:37;2.60;;;1.00;;
15063;SDS011;7631;52.088;5.088;2023-04-03T13:51:53;1.47;;;0.83;;
15063;SDS011;7631;52.088;5.088;2023-04-03T13:54:38;1.07;;;0.70;;
15063;SDS011;7631;52.088;5.088;2023-04-03T13:57:11;1.37;;;0.53;;
15063;SDS011;7631;52.088;5.088;2023-04-03T13:59:37;1.20;;;0.73;;
15063;SDS011;7631;52.088;5.088;2023-04-03T14:07:25;1.10;;;0.80;;
15063;SDS011;7631;52.088;5.088;2023-04-03T14:09:50;0.97;;;0.63;;
15063;SDS011;7631;52.088;5.088;2023-04-03T14:14:44;1.07;;;0.60;;
15063;SDS011;7631;52.088;5.088;2023-04-03T14:17:13;1.00;;;0.70;;
15063;SDS011;7631;52.088;5.088;2023-04-03T14:19:40;1.60;;;0.90;;
15063;SDS011;7631;52.088;5.088;2023-04-03T14:22:17;1.13;;;0.60;;
15063;SDS011;7631;52.088;5.088;2023-04-03T14:24:42;1.50;;;0.70;;
15063;SDS011;7631;52.088;5.088;2023-04-03T14:27:19;1.20;;;0.70;;
15063;SDS011;7631;52.088;5.088;2023-04-03T14:29:45;2.23;;;0.90;;
15063;SDS011;7631;52.088;5.088;2023-04-03T14:32:11;1.10;;;0.70;;
15063;SDS011;7631;52.088;5.088;2023-04-03T14:34:37;0.73;;;0.70;;
15063;SDS011;7631;52.088;5.088;2023-04-03T14:37:04;1.13;;;0.63;;
15063;SDS011;7631;52.088;5.088;2023-04-03T14:39:29;2.27;;;1.07;;
15063;SDS011;7631;52.088;5.088;2023-04-03T14:41:55;1.73;;;0.90;;
15063;SDS011;7631;52.088;5.088;2023-04-03T14:44:20;3.07;;;0.90;;
15063;SDS011;7631;52.088;5.088;2023-04-03T14:46:45;1.90;;;0.73;;
15063;SDS011;7631;52.088;5.088;2023-04-03T14:49:18;2.27;;;1.10;;
15063;SDS011;7631;52.088;5.088;2023-04-03T14:51:44;0.90;;;0.80;;
15063;SDS011;7631;52.088;5.088;2023-04-03T14:54:13;1.80;;;0.80;;
15063;SDS011;7631;52.088;5.088;2023-04-03T14:56:39;1.37;;;0.90;;
15063;SDS011;7631;52.088;5.088;2023-04-03T14:59:04;1.13;;;0.80;;
15063;SDS011;7631;52.088;5.088;2023-04-03T15:01:29;2.20;;;0.70;;
15063;SDS011;7631;52.088;5.088;2023-04-03T15:03:55;1.40;;;0.70;;
15063;SDS011;7631;52.088;5.088;2023-04-03T15:06:20;2.07;;;1.10;;
15063;SDS011;7631;52.088;5.088;2023-04-03T15:08:46;2.33;;;1.03;;
15063;SDS011;7631;52.088;5.088;2023-04-03T15:11:12;1.20;;;0.93;;
15063;SDS011;7631;52.088;5.088;2023-04-03T15:13:37;1.63;;;0.97;;
15063;SDS011;7631;52.088;5.088;2023-04-03T15:16:03;1.00;;;0.70;;
15063;SDS011;7631;52.088;5.088;2023-04-03T15:18:30;2.40;;;1.10;;
15063;SDS011;7631;52.088;5.088;2023-04-03T15:20:57;2.63;;;1.00;;
15063;SDS011;7631;52.088;5.088;2023-04-03T15:23:22;1.63;;;0.80;;
15063;SDS011;7631;52.088;5.088;2023-04-03T15:25:51;2.17;;;0.90;;
15063;SDS011;7631;52.088;5.088;2023-04-03T15:28:31;0.97;;;0.80;;
15063;SDS011;7631;52.088;5.088;2023-04-03T15:30:57;1.80;;;0.90;;
15063;SDS011;7631;52.088;5.088;2023-04-03T15:33:23;1.33;;;0.93;;
15063;SDS011;7631;52.088;5.088;2023-04-03T15:35:48;2.07;;;0.90;;
15063;SDS011;7631;52.088;5.088;2023-04-03T15:38:14;1.27;;;0.93;;
15063;SDS011;7631;52.088;5.088;2023-04-03T15:40:39;0.87;;;0.80;;
15063;SDS011;7631;52.088;5.088;2023-04-03T15:43:05;2.83;;;0.90;;
15063;SDS011;7631;52.088;5.088;2023-04-03T15:45:30;1.83;;;1.00;;
15063;SDS011;7631;52.088;5.088;2023-04-03T15:47:56;1.57;;;1.07;;
15063;SDS011;7631;52.088;5.088;2023-04-03T15:50:21;1.23;;;0.80;;
15063;SDS011;7631;52.088;5.088;2023-04-03T15:52:49;1.37;;;1.00;;
15063;SDS011;7631;52.088;5.088;2023-04-03T15:55:19;2.13;;;0.90;;
15063;SDS011;7631;52.088;5.088;2023-04-03T15:57:44;1.37;;;0.80;;
15063;SDS011;7631;52.088;5.088;2023-04-03T16:00:09;2.00;;;0.97;;
15063;SDS011;7631;52.088;5.088;2023-04-03T16:02:35;1.90;;;1.07;;
15063;SDS011;7631;52.088;5.088;2023-04-03T16:05:00;2.73;;;0.90;;
15063;SDS011;7631;52.088;5.088;2023-04-03T16:07:25;1.50;;;1.00;;
15063;SDS011;7631;52.088;5.088;2023-04-03T16:09:51;2.00;;;0.97;;
15063;SDS011;7631;52.088;5.088;2023-04-03T16:12:17;1.93;;;0.93;;
15063;SDS011;7631;52.088;5.088;2023-04-03T16:14:42;1.30;;;0.80;;
15063;SDS011;7631;52.088;5.088;2023-04-03T16:17:07;1.13;;;1.00;;
15063;SDS011;7631;52.088;5.088;2023-04-03T16:19:32;2.00;;;0.90;;
15063;SDS011;7631;52.088;5.088;2023-04-03T16:21:58;1.63;;;1.00;;
15063;SDS011;7631;52.088;5.088;2023-04-03T16:24:23;2.30;;;1.07;;
15063;SDS011;7631;52.088;5.088;2023-04-03T16:26:48;2.70;;;1.20;;
15063;SDS011;7631;52.088;5.088;2023-04-03T16:29:13;2.57;;;1.20;;
15063;SDS011;7631;52.088;5.088;2023-04-03T16:31:39;2.20;;;1.10;;
15063;SDS011;7631;52.088;5.088;2023-04-03T16:34:04;1.27;;;0.80;;
15063;SDS011;7631;52.088;5.088;2023-04-03T16:36:30;2.33;;;1.20;;
15063;SDS011;7631;52.088;5.088;2023-04-03T16:38:55;1.70;;;1.13;;
15063;SDS011;7631;52.088;5.088;2023-04-03T16:41:20;1.90;;;1.13;;